createdAt,value
2022-10-17T00:03:00.418Z,100766.81
2022-10-17T00:08:03.062Z,100782.09
2022-10-17T00:13:07.569Z,100776.28
2022-10-17T00:18:10.160Z,100776.47
2022-10-17T00:23:12.890Z,100774.34
2022-10-17T00:28:17.144Z,100782.78
2022-10-17T00:33:19.728Z,100785.81
2022-10-17T00:38:22.416Z,100783.31
2022-10-17T00:43:26.644Z,100792.59
2022-10-17T00:48:29.336Z,100794.44
2022-10-17T00:53:32.017Z,100796.25
2022-10-17T00:58:36.051Z,100793.81
2022-10-17T01:03:38.693Z,100791.38
2022-10-17T01:08:41.784Z,100794.19
2022-10-17T01:13:48.061Z,100798.97
2022-10-17T01:18:57.675Z,100796.81
2022-10-17T01:24:15.863Z,100791.38
2022-10-17T01:29:57.082Z,100789.25
2022-10-17T01:35:05.171Z,100781.81
2022-10-17T01:40:11.357Z,100779.31
2022-10-17T01:45:16.614Z,100781.50
2022-10-17T01:50:24.928Z,100776.38
2022-10-17T01:55:32.055Z,100777.84
2022-10-17T02:00:35.932Z,100778.19
2022-10-17T02:05:42.120Z,100770.09
2022-10-17T02:10:50.522Z,100766.59
2022-10-17T02:16:06.271Z,100764.63
2022-10-17T02:21:16.742Z,100762.78
2022-10-17T02:26:22.671Z,100765.28
2022-10-17T02:31:27.928Z,100761.50
2022-10-17T02:36:34.876Z,100768.31
2022-10-17T02:41:38.877Z,100769.13
2022-10-17T02:46:42.788Z,100769.47
2022-10-17T02:51:52.689Z,100759.22
2022-10-17T02:56:58.729Z,100753.91
2022-10-17T03:02:04.592Z,100769.94
2022-10-17T03:07:08.635Z,100772.09
2022-10-17T03:12:11.566Z,100766.63
2022-10-17T03:17:14.425Z,100766.97
2022-10-17T03:22:18.483Z,100769.78
2022-10-17T03:27:22.741Z,100769.13
2022-10-17T03:32:25.626Z,100782.66
2022-10-17T03:37:29.903Z,100779.34
2022-10-17T03:42:33.258Z,100774.22
2022-10-17T03:47:36.694Z,100776.22
2022-10-17T03:52:40.874Z,100781.34
2022-10-17T03:57:45.685Z,100783.81
2022-10-17T04:02:49.720Z,100793.59
2022-10-17T04:07:57.823Z,100793.44
2022-10-17T04:13:22.466Z,100801.53
2022-10-17T04:18:25.712Z,100799.03
2022-10-17T04:23:29.796Z,100796.22
2022-10-17T04:33:42.804Z,100800.03
2022-10-17T04:38:47.083Z,100809.13
2022-10-17T04:43:51.233Z,100808.81
2022-10-17T04:48:55.805Z,100802.34
2022-10-17T04:53:59.864Z,100806.44
2022-10-17T04:59:02.722Z,100804.00
2022-10-17T05:04:05.670Z,100802.47
2022-10-17T05:09:09.868Z,100809.94
2022-10-17T05:14:12.921Z,100811.94
2022-10-17T05:19:15.655Z,100818.38
2022-10-17T05:24:23.867Z,100820.00
2022-10-17T05:29:26.638Z,100824.97
2022-10-17T05:34:38.280Z,100828.63
2022-10-17T05:39:42.839Z,100832.59
2022-10-17T05:44:46.131Z,100830.94
2022-10-17T05:49:52.452Z,100833.59
2022-10-17T05:55:02.897Z,100834.06
2022-10-17T06:00:07.311Z,100834.72
2022-10-17T06:05:20.077Z,100830.09
2022-10-17T06:10:24.326Z,100837.72
2022-10-17T06:15:27.098Z,100853.94
2022-10-17T06:20:45.339Z,100850.09
2022-10-17T06:25:51.636Z,100851.13
2022-10-17T06:30:54.399Z,100868.00
2022-10-17T06:35:58.005Z,100865.34
2022-10-17T06:41:08.609Z,100871.44
2022-10-17T06:46:11.390Z,100882.00
2022-10-17T06:51:17.739Z,100896.25
2022-10-17T06:56:26.364Z,100902.69
2022-10-17T07:01:46.282Z,100896.34
2022-10-17T07:06:50.543Z,100902.44
2022-10-17T07:11:58.640Z,100910.53
2022-10-17T07:17:01.539Z,100907.38
2022-10-17T07:22:07.171Z,100907.53
2022-10-17T07:27:13.807Z,100902.69
2022-10-17T07:32:16.601Z,100907.81
2022-10-17T07:37:19.261Z,100915.09
2022-10-17T07:42:30.024Z,100919.53
2022-10-17T07:47:35.678Z,100928.47
2022-10-17T07:52:39.423Z,100935.41
2022-10-17T07:57:43.569Z,100928.88
2022-10-17T08:02:46.313Z,100930.66
2022-10-17T08:07:49.011Z,100941.06
2022-10-17T08:12:52.967Z,100926.91
2022-10-17T08:17:55.902Z,100935.00
2022-10-17T08:22:58.597Z,100938.56
2022-10-17T08:28:02.851Z,100935.22
2022-10-17T08:33:06.258Z,100943.31
2022-10-17T08:38:12.249Z,100945.06
2022-10-17T08:43:33.266Z,100948.16
2022-10-17T08:48:44.066Z,100944.53
2022-10-17T08:53:51.906Z,100942.66
2022-10-17T08:58:55.910Z,100937.19
2022-10-17T09:04:07.852Z,100933.44
2022-10-17T09:09:19.588Z,100921.88
2022-10-17T09:14:38.009Z,100929.59
2022-10-17T09:19:42.739Z,100930.00
2022-10-17T09:24:48.734Z,100938.41
2022-10-17T09:29:55.962Z,100920.09
2022-10-17T09:34:58.826Z,100921.16
2022-10-17T09:40:01.452Z,100919.84
2022-10-17T09:45:18.623Z,100930.72
2022-10-17T09:50:22.946Z,100922.00
2022-10-17T09:55:31.106Z,100937.72
2022-10-17T10:00:36.497Z,100938.28
2022-10-17T10:05:39.448Z,100941.22
2022-10-17T10:10:43.139Z,100946.25
2022-10-17T10:15:48.928Z,100947.06
2022-10-17T10:21:04.975Z,100943.88
2022-10-17T10:26:21.055Z,100947.25
2022-10-17T10:31:30.700Z,100938.84
2022-10-17T10:36:59.483Z,100940.41
2022-10-17T10:42:03.342Z,100933.84
2022-10-17T10:47:17.652Z,100915.16
2022-10-17T10:52:33.961Z,100913.88
2022-10-17T10:57:38.580Z,100915.34
2022-10-17T11:02:49.731Z,100904.66
2022-10-17T11:07:56.105Z,100909.13
2022-10-17T11:13:02.544Z,100903.47
2022-10-17T11:18:08.462Z,100901.38
2022-10-17T11:23:21.359Z,100908.13
2022-10-17T11:28:24.844Z,100907.88
2022-10-17T11:33:35.407Z,100892.16
2022-10-17T11:38:42.965Z,100896.16
2022-10-17T11:43:51.227Z,100900.94
2022-10-17T11:49:02.185Z,100890.44
2022-10-17T11:54:09.890Z,100887.94
2022-10-17T11:59:30.235Z,100883.56
2022-10-17T12:04:44.847Z,100878.88
2022-10-17T12:09:55.779Z,100870.47
2022-10-17T12:15:30.078Z,100862.34
2022-10-17T12:20:36.129Z,100860.38
2022-10-17T12:25:49.629Z,100861.81
2022-10-17T12:30:56.066Z,100858.97
2022-10-17T12:36:50.162Z,100851.03
2022-10-17T12:41:57.018Z,100846.09
2022-10-17T12:47:00.233Z,100838.69
2022-10-17T12:52:16.830Z,100847.66
2022-10-17T12:57:24.130Z,100849.56
2022-10-17T13:02:28.569Z,100844.13
2022-10-17T13:07:31.570Z,100836.97
2022-10-17T13:12:41.166Z,100841.59
2022-10-17T13:17:44.199Z,100849.41
2022-10-17T13:22:47.032Z,100844.75
2022-10-17T13:27:53.647Z,100839.41
2022-10-17T13:32:56.560Z,100835.44
2022-10-17T13:38:01.973Z,100824.06
2022-10-17T13:43:06.208Z,100831.28
2022-10-17T13:48:19.860Z,100834.47
2022-10-17T13:53:27.534Z,100824.19
2022-10-17T13:58:42.818Z,100827.50
2022-10-17T14:03:48.916Z,100828.69
2022-10-17T14:08:56.322Z,100841.44
2022-10-17T14:14:01.563Z,100843.28
2022-10-17T14:19:05.630Z,100850.56
2022-10-17T14:24:17.425Z,100847.34
2022-10-17T14:29:25.220Z,100848.97
2022-10-17T14:34:32.116Z,100853.97
2022-10-17T14:39:34.759Z,100855.91
2022-10-17T14:44:38.970Z,100855.00
2022-10-17T14:49:42.070Z,100848.31
2022-10-17T14:54:46.509Z,100853.19
2022-10-17T14:59:55.100Z,100860.41
2022-10-17T15:04:58.484Z,100863.53
2022-10-17T15:10:01.115Z,100867.91
2022-10-17T15:15:05.619Z,100866.13
2022-10-17T15:20:13.459Z,100854.91
2022-10-17T15:25:16.401Z,100860.81
2022-10-17T15:30:23.333Z,100868.84
2022-10-17T15:35:26.285Z,100878.16
2022-10-17T15:40:30.722Z,100871.81
2022-10-17T15:45:35.869Z,100881.16
2022-10-17T15:50:38.492Z,100881.75
2022-10-17T15:55:41.254Z,100878.44
2022-10-17T16:00:46.373Z,100868.06
2022-10-17T16:05:49.127Z,100870.81
2022-10-17T16:10:52.650Z,100881.97
2022-10-17T16:15:56.639Z,100885.94
2022-10-17T16:20:59.490Z,100873.81
2022-10-17T16:26:02.339Z,100877.72
2022-10-17T16:31:06.643Z,100878.72
2022-10-17T16:36:10.310Z,100878.31
2022-10-17T16:41:21.068Z,100891.41
2022-10-17T16:46:26.507Z,100898.56
2022-10-17T16:51:29.368Z,100894.03
2022-10-17T16:56:32.795Z,100904.63
2022-10-17T17:01:37.984Z,100908.09
2022-10-17T17:06:40.660Z,100902.88
2022-10-17T17:11:43.351Z,100914.28
2022-10-17T17:16:47.336Z,100907.19
2022-10-17T17:21:51.064Z,100911.84
2022-10-17T17:26:55.132Z,100910.09
2022-10-17T17:31:59.117Z,100925.25
2022-10-17T17:37:01.744Z,100915.94
2022-10-17T17:42:04.534Z,100916.50
2022-10-17T17:47:08.523Z,100929.75
2022-10-17T17:52:11.273Z,100937.97
2022-10-17T17:57:13.956Z,100943.00
2022-10-17T18:02:18.095Z,100937.03
2022-10-17T18:07:20.920Z,100950.09
2022-10-17T18:12:23.545Z,100943.50
2022-10-17T18:17:27.630Z,100944.25
2022-10-17T18:22:30.523Z,100936.91
2022-10-17T18:27:33.335Z,100953.59
2022-10-17T18:32:37.322Z,100961.19
2022-10-17T18:42:47.560Z,100955.94
2022-10-17T18:47:52.874Z,100961.56
2022-10-17T18:52:55.636Z,100966.03
2022-10-17T18:57:59.082Z,100979.75
2022-10-17T19:03:04.177Z,100995.88
2022-10-17T19:08:06.868Z,100993.72
2022-10-17T19:13:10.048Z,100989.88
2022-10-17T19:18:14.099Z,100993.06
2022-10-17T19:23:16.695Z,101001.16
2022-10-17T19:28:19.523Z,101005.66
2022-10-17T19:33:23.590Z,100996.66
2022-10-17T19:38:26.866Z,100995.91
2022-10-17T19:43:29.567Z,100993.59
2022-10-17T19:48:34.496Z,101004.81
2022-10-17T19:53:37.176Z,101011.47
2022-10-17T19:58:46.212Z,101022.41
2022-10-17T20:03:50.607Z,101025.88
2022-10-17T20:08:53.930Z,101037.25
2022-10-17T20:13:57.618Z,101039.16
2022-10-17T20:19:09.547Z,101043.53
2022-10-17T20:24:14.549Z,101056.91
2022-10-17T20:29:19.741Z,101056.16
2022-10-17T20:34:23.852Z,101046.88
2022-10-17T20:39:26.625Z,101048.03
2022-10-17T20:44:29.219Z,101056.03
2022-10-17T20:49:33.830Z,101055.75
2022-10-17T20:54:36.482Z,101057.66
2022-10-17T20:59:39.134Z,101050.66
2022-10-17T21:04:47.265Z,101058.09
2022-10-17T21:09:49.945Z,101059.78
2022-10-17T21:14:52.526Z,101064.88
2022-10-17T21:19:56.921Z,101073.09
2022-10-17T21:24:59.544Z,101068.28
2022-10-17T21:30:02.271Z,101066.88
2022-10-17T21:35:07.395Z,101073.50
2022-10-17T21:40:11.055Z,101071.84
2022-10-17T21:45:15.771Z,101070.53
2022-10-17T21:50:24.141Z,101068.09
2022-10-17T21:55:26.778Z,101063.41
2022-10-17T22:00:29.469Z,101085.03
2022-10-17T22:05:33.491Z,101082.03
2022-10-17T22:10:37.868Z,101087.50
2022-10-17T22:15:40.467Z,101088.97
2022-10-17T22:20:44.570Z,101091.94
2022-10-17T22:25:54.107Z,101089.06
2022-10-17T22:30:58.703Z,101087.13
2022-10-17T22:36:03.014Z,101085.56
2022-10-17T22:41:06.060Z,101083.09
2022-10-17T22:46:09.269Z,101086.22
2022-10-17T22:51:13.488Z,101099.03
2022-10-17T22:56:18.519Z,101106.16
2022-10-17T23:01:22.553Z,101094.72
2022-10-17T23:06:26.663Z,101092.59
2022-10-17T23:11:29.348Z,101096.13
2022-10-17T23:16:31.972Z,101098.97
2022-10-17T23:21:36.029Z,101095.34
2022-10-17T23:26:38.638Z,101107.63
2022-10-17T23:31:41.242Z,101107.03
2022-10-17T23:36:45.255Z,101108.16
2022-10-17T23:41:47.884Z,101097.53
2022-10-17T23:46:50.541Z,101096.63
2022-10-17T23:51:54.810Z,101101.28
2022-10-17T23:56:57.781Z,101098.94
